Arma, Kansas
Current Conditions -  °F | °C
As of 3:55 PM on Monday 22 Dec 2014 (Local Time) from KPTS Reporting Station
Overcast Overcast  
Wind Chill: 51°   Ceiling: 1600
Heat Index: 51°   Visibility: 10mi
Dew Point: 51°   Wind: 8mph
Humidity: 100%   Direction: 260°W
Pressure: 29.5"   Gusts: NA
Location:  37.54°N, 94.7°W
Report Text: KPTS 222155Z AUTO 26007KT 10SM SCT008 BKN016 OVC032 11/11 A2950 RMK AO2 T01050106
Loading
Personal Weather Stations






























Interactive Weather Map New forecast layout! Learn more

10-Day Weather Forecast

Advertisements
Track Severe Weather on mobile